sensor_id;sensor_type;location;lat;lon;timestamp;temperature;humidity
40454;DHT22;26160;51.858;4.398;2022-09-03T00:02:35;20.00;99.90
40454;DHT22;26160;51.858;4.398;2022-09-03T00:07:46;20.10;99.90
40454;DHT22;26160;51.858;4.398;2022-09-03T00:10:20;20.00;99.90
40454;DHT22;26160;51.858;4.398;2022-09-03T00:12:49;20.10;99.90
40454;DHT22;26160;51.858;4.398;2022-09-03T00:15:19;20.10;99.90
40454;DHT22;26160;51.858;4.398;2022-09-03T00:18:11;20.10;99.90
40454;DHT22;26160;51.858;4.398;2022-09-03T00:20:42;20.10;99.90
40454;DHT22;26160;51.858;4.398;2022-09-03T00:23:15;20.00;99.90
40454;DHT22;26160;51.858;4.398;2022-09-03T00:28:50;20.10;99.90
40454;DHT22;26160;51.858;4.398;2022-09-03T00:31:28;20.10;99.90
40454;DHT22;26160;51.858;4.398;2022-09-03T00:34:02;20.10;99.90
40454;DHT22;26160;51.858;4.398;2022-09-03T00:36:34;20.10;99.90
40454;DHT22;26160;51.858;4.398;2022-09-03T00:39:02;20.10;99.90
40454;DHT22;26160;51.858;4.398;2022-09-03T00:41:36;20.10;99.90
40454;DHT22;26160;51.858;4.398;2022-09-03T00:46:59;20.10;99.90
40454;DHT22;26160;51.858;4.398;2022-09-03T00:52:43;20.10;99.90
40454;DHT22;26160;51.858;4.398;2022-09-03T01:00:38;20.10;99.90
40454;DHT22;26160;51.858;4.398;2022-09-03T01:03:15;20.10;99.90
40454;DHT22;26160;51.858;4.398;2022-09-03T01:05:52;20.10;99.90
40454;DHT22;26160;51.858;4.398;2022-09-03T01:08:35;20.10;99.90
40454;DHT22;26160;51.858;4.398;2022-09-03T01:11:35;20.10;99.90
40454;DHT22;26160;51.858;4.398;2022-09-03T01:17:02;20.00;99.90
40454;DHT22;26160;51.858;4.398;2022-09-03T01:19:43;19.90;99.90
40454;DHT22;26160;51.858;4.398;2022-09-03T01:25:22;19.90;99.90
40454;DHT22;26160;51.858;4.398;2022-09-03T01:30:29;19.90;99.90
40454;DHT22;26160;51.858;4.398;2022-09-03T01:35:47;19.80;99.90
40454;DHT22;26160;51.858;4.398;2022-09-03T01:47:03;19.80;99.90
40454;DHT22;26160;51.858;4.398;2022-09-03T01:49:37;19.70;99.90
40454;DHT22;26160;51.858;4.398;2022-09-03T01:55:20;19.70;99.90
40454;DHT22;26160;51.858;4.398;2022-09-03T01:58:35;19.60;99.90
40454;DHT22;26160;51.858;4.398;2022-09-03T02:00:59;19.50;99.90
40454;DHT22;26160;51.858;4.398;2022-09-03T02:03:34;19.40;99.90
40454;DHT22;26160;51.858;4.398;2022-09-03T02:06:02;19.40;99.90
40454;DHT22;26160;51.858;4.398;2022-09-03T02:08:28;19.40;99.90
40454;DHT22;26160;51.858;4.398;2022-09-03T02:10:56;19.40;99.90
40454;DHT22;26160;51.858;4.398;2022-09-03T02:13:41;19.30;99.90
40454;DHT22;26160;51.858;4.398;2022-09-03T02:16:21;19.20;99.90
40454;DHT22;26160;51.858;4.398;2022-09-03T02:18:55;19.20;99.90
40454;DHT22;26160;51.858;4.398;2022-09-03T02:21:24;19.20;99.90
40454;DHT22;26160;51.858;4.398;2022-09-03T02:23:51;19.20;99.90
40454;DHT22;26160;51.858;4.398;2022-09-03T02:26:21;19.10;99.90
40454;DHT22;26160;51.858;4.398;2022-09-03T02:28:48;19.00;99.90
40454;DHT22;26160;51.858;4.398;2022-09-03T02:31:14;18.90;99.90
40454;DHT22;26160;51.858;4.398;2022-09-03T02:33:43;18.80;99.90
40454;DHT22;26160;51.858;4.398;2022-09-03T02:36:13;18.80;99.90
40454;DHT22;26160;51.858;4.398;2022-09-03T02:38:43;18.70;99.90
40454;DHT22;26160;51.858;4.398;2022-09-03T02:41:10;18.60;99.90
40454;DHT22;26160;51.858;4.398;2022-09-03T02:43:45;18.60;99.90
40454;DHT22;26160;51.858;4.398;2022-09-03T02:46:21;18.50;99.90
40454;DHT22;26160;51.858;4.398;2022-09-03T02:48:49;18.40;99.90
40454;DHT22;26160;51.858;4.398;2022-09-03T02:51:15;18.40;99.90
40454;DHT22;26160;51.858;4.398;2022-09-03T02:53:42;18.30;99.90
40454;DHT22;26160;51.858;4.398;2022-09-03T02:56:08;18.30;99.90
40454;DHT22;26160;51.858;4.398;2022-09-03T02:58:34;18.20;99.90
40454;DHT22;26160;51.858;4.398;2022-09-03T03:01:00;18.10;99.90
40454;DHT22;26160;51.858;4.398;2022-09-03T03:03:26;18.10;99.90
40454;DHT22;26160;51.858;4.398;2022-09-03T03:05:55;18.00;99.90
40454;DHT22;26160;51.858;4.398;2022-09-03T03:08:24;18.00;99.90
40454;DHT22;26160;51.858;4.398;2022-09-03T03:10:51;18.00;99.90
40454;DHT22;26160;51.858;4.398;2022-09-03T03:13:19;17.90;99.90
40454;DHT22;26160;51.858;4.398;2022-09-03T03:15:45;17.80;99.90
40454;DHT22;26160;51.858;4.398;2022-09-03T03:18:12;17.70;99.90
40454;DHT22;26160;51.858;4.398;2022-09-03T03:20:39;17.70;99.90
40454;DHT22;26160;51.858;4.398;2022-09-03T03:23:06;17.70;99.90
40454;DHT22;26160;51.858;4.398;2022-09-03T03:25:35;17.70;99.90
40454;DHT22;26160;51.858;4.398;2022-09-03T03:28:01;17.60;99.90
40454;DHT22;26160;51.858;4.398;2022-09-03T03:30:29;17.60;99.90
40454;DHT22;26160;51.858;4.398;2022-09-03T03:32:56;17.50;99.90
40454;DHT22;26160;51.858;4.398;2022-09-03T03:35:23;17.40;99.90
40454;DHT22;26160;51.858;4.398;2022-09-03T03:37:49;17.50;99.90
40454;DHT22;26160;51.858;4.398;2022-09-03T03:40:16;17.40;99.90
40454;DHT22;26160;51.858;4.398;2022-09-03T03:42:42;17.30;99.90
40454;DHT22;26160;51.858;4.398;2022-09-03T03:45:09;17.30;99.90
40454;DHT22;26160;51.858;4.398;2022-09-03T03:47:36;17.20;99.90
40454;DHT22;26160;51.858;4.398;2022-09-03T03:50:03;17.20;99.90
40454;DHT22;26160;51.858;4.398;2022-09-03T03:52:29;17.10;99.90
40454;DHT22;26160;51.858;4.398;2022-09-03T03:54:55;17.10;99.90
40454;DHT22;26160;51.858;4.398;2022-09-03T03:57:22;17.10;99.90
40454;DHT22;26160;51.858;4.398;2022-09-03T03:59:49;17.00;99.90
40454;DHT22;26160;51.858;4.398;2022-09-03T04:02:16;17.00;99.90
40454;DHT22;26160;51.858;4.398;2022-09-03T04:04:42;16.90;99.90
40454;DHT22;26160;51.858;4.398;2022-09-03T04:07:08;16.90;99.90
40454;DHT22;26160;51.858;4.398;2022-09-03T04:09:35;16.90;99.90
40454;DHT22;26160;51.858;4.398;2022-09-03T04:12:02;16.80;99.90
40454;DHT22;26160;51.858;4.398;2022-09-03T04:14:30;16.80;99.90
40454;DHT22;26160;51.858;4.398;2022-09-03T04:16:56;16.70;99.90
40454;DHT22;26160;51.858;4.398;2022-09-03T04:19:22;16.70;99.90
40454;DHT22;26160;51.858;4.398;2022-09-03T04:21:49;16.70;99.90
40454;DHT22;26160;51.858;4.398;2022-09-03T04:24:15;16.70;99.90
40454;DHT22;26160;51.858;4.398;2022-09-03T04:26:41;16.70;99.90
40454;DHT22;26160;51.858;4.398;2022-09-03T04:29:08;16.70;99.90
40454;DHT22;26160;51.858;4.398;2022-09-03T04:31:36;16.60;99.90
40454;DHT22;26160;51.858;4.398;2022-09-03T04:34:03;16.60;99.90
40454;DHT22;26160;51.858;4.398;2022-09-03T04:36:31;16.60;99.90
40454;DHT22;26160;51.858;4.398;2022-09-03T04:39:00;16.50;99.90
40454;DHT22;26160;51.858;4.398;2022-09-03T04:41:30;16.50;99.90
40454;DHT22;26160;51.858;4.398;2022-09-03T04:43:57;16.50;99.90
40454;DHT22;26160;51.858;4.398;2022-09-03T04:46:25;16.50;99.90
40454;DHT22;26160;51.858;4.398;2022-09-03T04:48:54;16.40;99.90
40454;DHT22;26160;51.858;4.398;2022-09-03T04:51:22;16.40;99.90
40454;DHT22;26160;51.858;4.398;2022-09-03T04:53:56;16.40;99.90
40454;DHT22;26160;51.858;4.398;2022-09-03T04:56:25;16.40;99.90
40454;DHT22;26160;51.858;4.398;2022-09-03T04:58:56;16.40;99.90
40454;DHT22;26160;51.858;4.398;2022-09-03T05:01:24;16.40;99.90
40454;DHT22;26160;51.858;4.398;2022-09-03T05:03:51;16.30;99.90
40454;DHT22;26160;51.858;4.398;2022-09-03T05:06:17;16.30;99.90
40454;DHT22;26160;51.858;4.398;2022-09-03T05:08:47;16.30;99.90
40454;DHT22;26160;51.858;4.398;2022-09-03T05:11:14;16.20;99.90
40454;DHT22;26160;51.858;4.398;2022-09-03T05:13:40;16.20;99.90
40454;DHT22;26160;51.858;4.398;2022-09-03T05:16:09;16.20;99.90
40454;DHT22;26160;51.858;4.398;2022-09-03T05:18:36;16.20;99.90
40454;DHT22;26160;51.858;4.398;2022-09-03T05:21:05;16.10;99.90
40454;DHT22;26160;51.858;4.398;2022-09-03T05:23:34;16.10;99.90
40454;DHT22;26160;51.858;4.398;2022-09-03T05:26:03;16.10;99.90
40454;DHT22;26160;51.858;4.398;2022-09-03T05:28:30;16.10;99.90
40454;DHT22;26160;51.858;4.398;2022-09-03T05:31:00;16.10;99.90
40454;DHT22;26160;51.858;4.398;2022-09-03T05:33:26;16.10;99.90
40454;DHT22;26160;51.858;4.398;2022-09-03T05:35:54;16.10;99.90
40454;DHT22;26160;51.858;4.398;2022-09-03T05:38:25;16.10;99.90
40454;DHT22;26160;51.858;4.398;2022-09-03T05:40:51;16.10;99.90
40454;DHT22;26160;51.858;4.398;2022-09-03T05:43:17;16.10;99.90
40454;DHT22;26160;51.858;4.398;2022-09-03T05:45:43;16.10;99.90
40454;DHT22;26160;51.858;4.398;2022-09-03T05:48:09;16.10;99.90
40454;DHT22;26160;51.858;4.398;2022-09-03T05:50:35;16.10;99.90
40454;DHT22;26160;51.858;4.398;2022-09-03T05:53:01;16.10;99.90
40454;DHT22;26160;51.858;4.398;2022-09-03T05:55:28;16.10;99.90
40454;DHT22;26160;51.858;4.398;2022-09-03T05:57:54;16.10;99.90
40454;DHT22;26160;51.858;4.398;2022-09-03T06:00:20;16.20;99.90
40454;DHT22;26160;51.858;4.398;2022-09-03T06:02:50;16.20;99.90
40454;DHT22;26160;51.858;4.398;2022-09-03T06:05:17;16.20;99.90
40454;DHT22;26160;51.858;4.398;2022-09-03T06:07:44;16.20;99.90
40454;DHT22;26160;51.858;4.398;2022-09-03T06:10:14;16.30;99.90
40454;DHT22;26160;51.858;4.398;2022-09-03T06:12:42;16.30;99.90
40454;DHT22;26160;51.858;4.398;2022-09-03T06:15:09;16.40;99.90
40454;DHT22;26160;51.858;4.398;2022-09-03T06:17:37;16.40;99.90
40454;DHT22;26160;51.858;4.398;2022-09-03T06:20:03;16.40;99.90
40454;DHT22;26160;51.858;4.398;2022-09-03T06:22:30;16.40;99.90
40454;DHT22;26160;51.858;4.398;2022-09-03T06:24:56;16.50;99.90
40454;DHT22;26160;51.858;4.398;2022-09-03T06:27:23;16.50;99.90
40454;DHT22;26160;51.858;4.398;2022-09-03T06:29:49;16.50;99.90
40454;DHT22;26160;51.858;4.398;2022-09-03T06:32:15;16.60;99.90
40454;DHT22;26160;51.858;4.398;2022-09-03T06:34:41;16.70;99.90
40454;DHT22;26160;51.858;4.398;2022-09-03T06:37:07;16.70;99.90
40454;DHT22;26160;51.858;4.398;2022-09-03T06:39:33;16.70;99.90
40454;DHT22;26160;51.858;4.398;2022-09-03T06:41:59;16.80;99.90
40454;DHT22;26160;51.858;4.398;2022-09-03T06:44:25;16.90;99.90
40454;DHT22;26160;51.858;4.398;2022-09-03T06:46:52;17.00;99.90
40454;DHT22;26160;51.858;4.398;2022-09-03T06:49:18;17.10;99.90
40454;DHT22;26160;51.858;4.398;2022-09-03T06:51:45;17.10;99.90
40454;DHT22;26160;51.858;4.398;2022-09-03T06:54:11;17.20;99.90
40454;DHT22;26160;51.858;4.398;2022-09-03T06:56:39;17.20;99.90
40454;DHT22;26160;51.858;4.398;2022-09-03T06:59:08;17.30;99.90
40454;DHT22;26160;51.858;4.398;2022-09-03T07:01:35;17.30;99.90
40454;DHT22;26160;51.858;4.398;2022-09-03T07:04:04;17.40;99.90
40454;DHT22;26160;51.858;4.398;2022-09-03T07:06:35;17.40;99.90
40454;DHT22;26160;51.858;4.398;2022-09-03T07:09:02;17.50;99.90
40454;DHT22;26160;51.858;4.398;2022-09-03T07:11:29;17.60;99.90
40454;DHT22;26160;51.858;4.398;2022-09-03T07:13:57;17.70;99.90
40454;DHT22;26160;51.858;4.398;2022-09-03T07:16:26;17.80;99.90
40454;DHT22;26160;51.858;4.398;2022-09-03T07:18:53;17.80;99.90
40454;DHT22;26160;51.858;4.398;2022-09-03T07:21:22;18.00;99.90
40454;DHT22;26160;51.858;4.398;2022-09-03T07:23:50;18.10;99.90
40454;DHT22;26160;51.858;4.398;2022-09-03T07:26:24;18.20;99.90
40454;DHT22;26160;51.858;4.398;2022-09-03T07:28:51;18.30;99.90
40454;DHT22;26160;51.858;4.398;2022-09-03T07:31:24;18.50;99.90
40454;DHT22;26160;51.858;4.398;2022-09-03T07:33:54;18.80;99.90
40454;DHT22;26160;51.858;4.398;2022-09-03T07:36:22;18.80;99.90
40454;DHT22;26160;51.858;4.398;2022-09-03T07:38:50;18.80;99.90
40454;DHT22;26160;51.858;4.398;2022-09-03T07:41:16;18.90;99.90
40454;DHT22;26160;51.858;4.398;2022-09-03T07:43:44;18.80;99.90
40454;DHT22;26160;51.858;4.398;2022-09-03T07:46:16;18.90;99.90
40454;DHT22;26160;51.858;4.398;2022-09-03T07:48:53;19.10;99.90
40454;DHT22;26160;51.858;4.398;2022-09-03T07:51:22;19.10;99.90
40454;DHT22;26160;51.858;4.398;2022-09-03T07:53:53;19.40;99.90
40454;DHT22;26160;51.858;4.398;2022-09-03T07:56:19;19.80;99.90
40454;DHT22;26160;51.858;4.398;2022-09-03T07:58:46;20.20;99.90
40454;DHT22;26160;51.858;4.398;2022-09-03T08:01:17;20.40;99.90
40454;DHT22;26160;51.858;4.398;2022-09-03T08:03:46;20.50;99.90
40454;DHT22;26160;51.858;4.398;2022-09-03T08:06:13;20.70;99.90
40454;DHT22;26160;51.858;4.398;2022-09-03T08:08:40;21.00;99.90
40454;DHT22;26160;51.858;4.398;2022-09-03T08:11:08;21.20;99.90
40454;DHT22;26160;51.858;4.398;2022-09-03T08:13:44;21.40;99.90
40454;DHT22;26160;51.858;4.398;2022-09-03T08:16:12;21.50;99.90
40454;DHT22;26160;51.858;4.398;2022-09-03T08:18:39;21.50;99.90
40454;DHT22;26160;51.858;4.398;2022-09-03T08:21:09;21.80;99.90
40454;DHT22;26160;51.858;4.398;2022-09-03T08:23:40;21.90;99.90
40454;DHT22;26160;51.858;4.398;2022-09-03T08:26:08;21.90;99.90
40454;DHT22;26160;51.858;4.398;2022-09-03T08:28:35;21.60;99.90
40454;DHT22;26160;51.858;4.398;2022-09-03T08:31:13;21.20;99.90
40454;DHT22;26160;51.858;4.398;2022-09-03T08:33:42;21.10;99.90
40454;DHT22;26160;51.858;4.398;2022-09-03T08:36:32;21.10;99.90
40454;DHT22;26160;51.858;4.398;2022-09-03T08:38:59;21.20;99.90
40454;DHT22;26160;51.858;4.398;2022-09-03T08:44:33;21.10;99.90
40454;DHT22;26160;51.858;4.398;2022-09-03T08:47:15;21.40;99.90
40454;DHT22;26160;51.858;4.398;2022-09-03T08:57:57;21.90;99.90
40454;DHT22;26160;51.858;4.398;2022-09-03T09:00:33;22.40;99.90
40454;DHT22;26160;51.858;4.398;2022-09-03T09:09:04;23.50;99.90
40454;DHT22;26160;51.858;4.398;2022-09-03T09:14:34;23.70;99.90
40454;DHT22;26160;51.858;4.398;2022-09-03T09:20:04;23.30;99.90
40454;DHT22;26160;51.858;4.398;2022-09-03T09:22:38;23.40;99.90
40454;DHT22;26160;51.858;4.398;2022-09-03T09:25:20;22.90;99.90
40454;DHT22;26160;51.858;4.398;2022-09-03T09:27:58;22.70;99.90
40454;DHT22;26160;51.858;4.398;2022-09-03T09:30:26;22.70;99.90
40454;DHT22;26160;51.858;4.398;2022-09-03T09:32:52;22.90;99.90
40454;DHT22;26160;51.858;4.398;2022-09-03T09:35:19;23.20;99.90
40454;DHT22;26160;51.858;4.398;2022-09-03T09:40:33;23.00;99.90
40454;DHT22;26160;51.858;4.398;2022-09-03T09:45:32;23.30;99.90
40454;DHT22;26160;51.858;4.398;2022-09-03T09:48:00;23.80;99.90
40454;DHT22;26160;51.858;4.398;2022-09-03T09:50:27;24.00;99.90
40454;DHT22;26160;51.858;4.398;2022-09-03T09:53:02;24.40;99.90
40454;DHT22;26160;51.858;4.398;2022-09-03T09:55:30;24.50;99.90
40454;DHT22;26160;51.858;4.398;2022-09-03T09:58:07;24.30;99.90
40454;DHT22;26160;51.858;4.398;2022-09-03T10:00:35;24.50;99.90
40454;DHT22;26160;51.858;4.398;2022-09-03T10:03:08;24.40;99.90
40454;DHT22;26160;51.858;4.398;2022-09-03T10:05:36;24.30;99.90
40454;DHT22;26160;51.858;4.398;2022-09-03T10:08:07;24.30;99.90
40454;DHT22;26160;51.858;4.398;2022-09-03T10:10:46;24.10;99.90
40454;DHT22;26160;51.858;4.398;2022-09-03T10:13:20;24.20;99.90
40454;DHT22;26160;51.858;4.398;2022-09-03T10:16:00;24.50;99.90
40454;DHT22;26160;51.858;4.398;2022-09-03T10:21:23;24.50;99.90
40454;DHT22;26160;51.858;4.398;2022-09-03T10:26:30;24.40;99.90
40454;DHT22;26160;51.858;4.398;2022-09-03T10:29:03;24.80;99.90
40454;DHT22;26160;51.858;4.398;2022-09-03T10:36:41;25.50;99.90
40454;DHT22;26160;51.858;4.398;2022-09-03T10:48:15;25.70;99.90
40454;DHT22;26160;51.858;4.398;2022-09-03T10:51:08;25.20;99.90
40454;DHT22;26160;51.858;4.398;2022-09-03T10:54:02;25.00;99.90
40454;DHT22;26160;51.858;4.398;2022-09-03T11:05:36;25.70;99.90
40454;DHT22;26160;51.858;4.398;2022-09-03T11:10:55;25.60;99.90
40454;DHT22;26160;51.858;4.398;2022-09-03T11:13:43;25.60;99.90
40454;DHT22;26160;51.858;4.398;2022-09-03T11:16:31;26.20;99.90
40454;DHT22;26160;51.858;4.398;2022-09-03T11:19:05;26.10;99.90
40454;DHT22;26160;51.858;4.398;2022-09-03T11:21:35;26.40;99.90
40454;DHT22;26160;51.858;4.398;2022-09-03T11:24:16;26.10;99.90
40454;DHT22;26160;51.858;4.398;2022-09-03T11:35:23;26.60;99.90
40454;DHT22;26160;51.858;4.398;2022-09-03T11:37:53;26.70;99.90
40454;DHT22;26160;51.858;4.398;2022-09-03T11:40:35;27.00;99.90
40454;DHT22;26160;51.858;4.398;2022-09-03T11:43:34;26.80;99.90
40454;DHT22;26160;51.858;4.398;2022-09-03T11:46:06;26.10;99.90
40454;DHT22;26160;51.858;4.398;2022-09-03T11:48:42;26.50;99.90
40454;DHT22;26160;51.858;4.398;2022-09-03T11:53:55;27.20;99.90
40454;DHT22;26160;51.858;4.398;2022-09-03T11:56:21;26.70;99.90
40454;DHT22;26160;51.858;4.398;2022-09-03T12:01:26;27.40;99.90
40454;DHT22;26160;51.858;4.398;2022-09-03T12:04:01;27.40;99.90
40454;DHT22;26160;51.858;4.398;2022-09-03T12:13:00;27.60;99.90
40454;DHT22;26160;51.858;4.398;2022-09-03T12:18:27;27.50;99.90
40454;DHT22;26160;51.858;4.398;2022-09-03T12:23:42;27.40;99.90
40454;DHT22;26160;51.858;4.398;2022-09-03T12:26:13;27.50;99.90
40454;DHT22;26160;51.858;4.398;2022-09-03T12:28:42;27.30;99.90
40454;DHT22;26160;51.858;4.398;2022-09-03T12:31:42;27.60;99.90
40454;DHT22;26160;51.858;4.398;2022-09-03T12:34:13;27.60;99.90
40454;DHT22;26160;51.858;4.398;2022-09-03T12:36:42;27.60;99.90
40454;DHT22;26160;51.858;4.398;2022-09-03T12:39:16;27.80;99.90
40454;DHT22;26160;51.858;4.398;2022-09-03T12:42:01;27.60;99.90
40454;DHT22;26160;51.858;4.398;2022-09-03T12:44:38;27.60;99.90
40454;DHT22;26160;51.858;4.398;2022-09-03T12:47:14;27.40;99.90
40454;DHT22;26160;51.858;4.398;2022-09-03T12:49:43;27.50;99.90
40454;DHT22;26160;51.858;4.398;2022-09-03T12:52:36;27.90;99.90
40454;DHT22;26160;51.858;4.398;2022-09-03T12:55:27;28.20;99.90
40454;DHT22;26160;51.858;4.398;2022-09-03T13:00:28;27.60;99.90
40454;DHT22;26160;51.858;4.398;2022-09-03T13:06:00;27.40;99.90
40454;DHT22;26160;51.858;4.398;2022-09-03T13:08:28;27.20;99.90
40454;DHT22;26160;51.858;4.398;2022-09-03T13:10:59;27.70;99.90
40454;DHT22;26160;51.858;4.398;2022-09-03T13:13:30;27.70;99.90
40454;DHT22;26160;51.858;4.398;2022-09-03T13:32:38;28.00;99.90
40454;DHT22;26160;51.858;4.398;2022-09-03T13:35:28;28.40;99.90
40454;DHT22;26160;51.858;4.398;2022-09-03T13:40:44;28.40;99.90
40454;DHT22;26160;51.858;4.398;2022-09-03T13:43:54;28.30;99.90
40454;DHT22;26160;51.858;4.398;2022-09-03T13:52:38;28.60;99.90
40454;DHT22;26160;51.858;4.398;2022-09-03T13:55:13;28.50;99.90
40454;DHT22;26160;51.858;4.398;2022-09-03T13:57:49;28.40;99.90
40454;DHT22;26160;51.858;4.398;2022-09-03T14:00:42;28.40;99.90
40454;DHT22;26160;51.858;4.398;2022-09-03T14:03:34;28.30;99.90
40454;DHT22;26160;51.858;4.398;2022-09-03T14:14:45;28.20;99.90
40454;DHT22;26160;51.858;4.398;2022-09-03T14:20:19;28.30;99.90
40454;DHT22;26160;51.858;4.398;2022-09-03T14:23:02;28.30;99.90
40454;DHT22;26160;51.858;4.398;2022-09-03T14:25:30;28.40;99.90
40454;DHT22;26160;51.858;4.398;2022-09-03T14:28:30;28.30;99.90
40454;DHT22;26160;51.858;4.398;2022-09-03T14:31:09;28.40;99.90
40454;DHT22;26160;51.858;4.398;2022-09-03T14:33:59;28.60;99.90
40454;DHT22;26160;51.858;4.398;2022-09-03T14:36:39;28.40;99.90
40454;DHT22;26160;51.858;4.398;2022-09-03T14:39:21;27.70;99.90
40454;DHT22;26160;51.858;4.398;2022-09-03T14:45:08;28.10;99.90
40454;DHT22;26160;51.858;4.398;2022-09-03T14:50:57;28.40;99.90
40454;DHT22;26160;51.858;4.398;2022-09-03T15:01:32;28.20;99.90
40454;DHT22;26160;51.858;4.398;2022-09-03T15:04:25;28.30;99.90
40454;DHT22;26160;51.858;4.398;2022-09-03T15:07:21;28.20;99.90
40454;DHT22;26160;51.858;4.398;2022-09-03T15:10:04;28.30;99.90
40454;DHT22;26160;51.858;4.398;2022-09-03T15:12:49;28.30;99.90
40454;DHT22;26160;51.858;4.398;2022-09-03T15:20:56;27.50;99.90
40454;DHT22;26160;51.858;4.398;2022-09-03T15:29:51;27.50;99.90
40454;DHT22;26160;51.858;4.398;2022-09-03T15:32:40;27.20;99.90
40454;DHT22;26160;51.858;4.398;2022-09-03T15:38:32;27.20;99.90
40454;DHT22;26160;51.858;4.398;2022-09-03T15:41:04;27.00;99.90
40454;DHT22;26160;51.858;4.398;2022-09-03T15:43:33;26.70;99.90
40454;DHT22;26160;51.858;4.398;2022-09-03T15:46:03;26.60;99.90
40454;DHT22;26160;51.858;4.398;2022-09-03T15:49:01;26.50;99.90
40454;DHT22;26160;51.858;4.398;2022-09-03T15:51:35;26.60;99.90
40454;DHT22;26160;51.858;4.398;2022-09-03T15:54:31;26.70;99.90
40454;DHT22;26160;51.858;4.398;2022-09-03T15:57:05;26.90;99.90
40454;DHT22;26160;51.858;4.398;2022-09-03T16:02:30;26.90;99.90
40454;DHT22;26160;51.858;4.398;2022-09-03T16:07:39;27.20;99.90
40454;DHT22;26160;51.858;4.398;2022-09-03T16:10:13;27.20;99.90
40454;DHT22;26160;51.858;4.398;2022-09-03T16:15:50;27.10;99.90
40454;DHT22;26160;51.858;4.398;2022-09-03T16:18:53;27.10;99.90
40454;DHT22;26160;51.858;4.398;2022-09-03T16:21:30;27.20;99.90
40454;DHT22;26160;51.858;4.398;2022-09-03T16:24:01;27.30;99.90
40454;DHT22;26160;51.858;4.398;2022-09-03T16:26:33;27.40;99.90
40454;DHT22;26160;51.858;4.398;2022-09-03T16:29:12;27.40;99.90
40454;DHT22;26160;51.858;4.398;2022-09-03T16:31:58;27.40;99.90
40454;DHT22;26160;51.858;4.398;2022-09-03T16:45:46;26.70;99.90
40454;DHT22;26160;51.858;4.398;2022-09-03T16:59:48;26.10;99.90
40454;DHT22;26160;51.858;4.398;2022-09-03T17:05:21;26.00;99.90
40454;DHT22;26160;51.858;4.398;2022-09-03T17:24:42;25.50;99.90
40454;DHT22;26160;51.858;4.398;2022-09-03T17:27:44;25.60;99.90
40454;DHT22;26160;51.858;4.398;2022-09-03T17:35:55;25.70;99.90
40454;DHT22;26160;51.858;4.398;2022-09-03T17:47:04;26.20;99.90
40454;DHT22;26160;51.858;4.398;2022-09-03T17:49:44;26.10;99.90
40454;DHT22;26160;51.858;4.398;2022-09-03T17:52:35;26.00;99.90
40454;DHT22;26160;51.858;4.398;2022-09-03T17:58:25;25.60;99.90
40454;DHT22;26160;51.858;4.398;2022-09-03T18:01:01;25.20;99.90
40454;DHT22;26160;51.858;4.398;2022-09-03T18:03:41;25.00;99.90
40454;DHT22;26160;51.858;4.398;2022-09-03T18:06:29;24.70;99.90
40454;DHT22;26160;51.858;4.398;2022-09-03T18:09:02;24.50;99.90
40454;DHT22;26160;51.858;4.398;2022-09-03T18:14:30;24.20;99.90
40454;DHT22;26160;51.858;4.398;2022-09-03T18:17:32;24.00;99.90
40454;DHT22;26160;51.858;4.398;2022-09-03T18:20:06;23.90;99.90
40454;DHT22;26160;51.858;4.398;2022-09-03T18:23:02;23.70;99.90
40454;DHT22;26160;51.858;4.398;2022-09-03T18:25:53;23.60;99.90
40454;DHT22;26160;51.858;4.398;2022-09-03T18:31:33;23.50;99.90
40454;DHT22;26160;51.858;4.398;2022-09-03T18:34:28;23.40;99.90
40454;DHT22;26160;51.858;4.398;2022-09-03T18:37:23;23.30;99.90
40454;DHT22;26160;51.858;4.398;2022-09-03T18:40:13;23.30;99.90
40454;DHT22;26160;51.858;4.398;2022-09-03T18:50:01;23.10;99.90
40454;DHT22;26160;51.858;4.398;2022-09-03T18:59:05;22.90;99.90
40454;DHT22;26160;51.858;4.398;2022-09-03T19:01:55;22.80;99.90
40454;DHT22;26160;51.858;4.398;2022-09-03T19:05:05;22.70;99.90
40454;DHT22;26160;51.858;4.398;2022-09-03T19:10:57;22.50;99.90
40454;DHT22;26160;51.858;4.398;2022-09-03T19:13:44;22.40;99.90
40454;DHT22;26160;51.858;4.398;2022-09-03T19:19:46;22.30;99.90
40454;DHT22;26160;51.858;4.398;2022-09-03T19:22:37;22.20;99.90
40454;DHT22;26160;51.858;4.398;2022-09-03T19:25:23;22.20;99.90
40454;DHT22;26160;51.858;4.398;2022-09-03T19:28:16;22.20;99.90
40454;DHT22;26160;51.858;4.398;2022-09-03T19:34:43;22.20;99.90
40454;DHT22;26160;51.858;4.398;2022-09-03T19:37:52;22.20;99.90
40454;DHT22;26160;51.858;4.398;2022-09-03T19:43:46;22.10;99.90
40454;DHT22;26160;51.858;4.398;2022-09-03T19:52:31;22.20;99.90
40454;DHT22;26160;51.858;4.398;2022-09-03T19:55:23;22.10;99.90
40454;DHT22;26160;51.858;4.398;2022-09-03T19:58:10;22.00;99.90
40454;DHT22;26160;51.858;4.398;2022-09-03T20:00:55;22.00;99.90
40454;DHT22;26160;51.858;4.398;2022-09-03T20:03:41;21.90;99.90
40454;DHT22;26160;51.858;4.398;2022-09-03T20:06:28;21.90;99.90
40454;DHT22;26160;51.858;4.398;2022-09-03T20:09:16;21.80;99.90
40454;DHT22;26160;51.858;4.398;2022-09-03T20:12:05;21.80;99.90
40454;DHT22;26160;51.858;4.398;2022-09-03T20:14:34;21.80;99.90
40454;DHT22;26160;51.858;4.398;2022-09-03T20:17:09;21.80;99.90
40454;DHT22;26160;51.858;4.398;2022-09-03T20:19:55;21.70;99.90
40454;DHT22;26160;51.858;4.398;2022-09-03T20:22:34;21.70;99.90
40454;DHT22;26160;51.858;4.398;2022-09-03T20:25:26;21.60;99.90
40454;DHT22;26160;51.858;4.398;2022-09-03T20:28:25;21.60;99.90
40454;DHT22;26160;51.858;4.398;2022-09-03T20:30:59;21.70;99.90
40454;DHT22;26160;51.858;4.398;2022-09-03T20:34:04;21.70;99.90
40454;DHT22;26160;51.858;4.398;2022-09-03T20:39:27;21.80;99.90
40454;DHT22;26160;51.858;4.398;2022-09-03T20:47:41;21.80;99.90
40454;DHT22;26160;51.858;4.398;2022-09-03T20:53:25;21.80;99.90
40454;DHT22;26160;51.858;4.398;2022-09-03T20:56:19;21.80;99.90
40454;DHT22;26160;51.858;4.398;2022-09-03T21:01:35;21.80;99.90
40454;DHT22;26160;51.858;4.398;2022-09-03T21:15:19;21.80;99.90
40454;DHT22;26160;51.858;4.398;2022-09-03T21:20:43;21.60;99.90
40454;DHT22;26160;51.858;4.398;2022-09-03T21:25:51;21.50;99.90
40454;DHT22;26160;51.858;4.398;2022-09-03T21:28:24;21.50;99.90
40454;DHT22;26160;51.858;4.398;2022-09-03T21:30:58;21.50;99.90
40454;DHT22;26160;51.858;4.398;2022-09-03T21:33:28;21.50;99.90
40454;DHT22;26160;51.858;4.398;2022-09-03T21:36:12;21.40;99.90
40454;DHT22;26160;51.858;4.398;2022-09-03T21:38:41;21.30;99.90
40454;DHT22;26160;51.858;4.398;2022-09-03T21:41:30;21.20;99.90
40454;DHT22;26160;51.858;4.398;2022-09-03T21:44:04;21.20;99.90
40454;DHT22;26160;51.858;4.398;2022-09-03T21:46:41;21.10;99.90
40454;DHT22;26160;51.858;4.398;2022-09-03T21:49:12;21.10;99.90
40454;DHT22;26160;51.858;4.398;2022-09-03T21:51:59;21.00;99.90